createdAt,value
2022-07-28T00:00:17.512Z,100493.53
2022-07-28T00:02:46.108Z,100492.13
2022-07-28T00:05:14.062Z,100497.16
2022-07-28T00:07:42.644Z,100498.66
2022-07-28T00:10:14.454Z,100501.22
2022-07-28T00:12:42.376Z,100507.88
2022-07-28T00:15:11.457Z,100511.25
2022-07-28T00:17:39.695Z,100504.06
2022-07-28T00:20:09.827Z,100509.34
2022-07-28T00:22:43.317Z,100502.16
2022-07-28T00:25:11.949Z,100508.81
2022-07-28T00:27:41.391Z,100514.66
2022-07-28T00:30:10.862Z,100512.19
2022-07-28T00:32:39.288Z,100514.88
2022-07-28T00:35:08.766Z,100517.81
2022-07-28T00:37:39.972Z,100520.50
2022-07-28T00:40:09.777Z,100517.19
2022-07-28T00:42:38.751Z,100520.13
2022-07-28T00:45:09.444Z,100525.72
2022-07-28T00:47:37.380Z,100526.78
2022-07-28T00:50:06.915Z,100526.38
2022-07-28T00:52:35.344Z,100534.13
2022-07-28T00:55:05.162Z,100535.00
2022-07-28T00:57:33.336Z,100534.38
2022-07-28T01:00:01.520Z,100536.22
2022-07-28T01:02:31.237Z,100535.41
2022-07-28T01:04:59.547Z,100531.09
2022-07-28T01:07:34.394Z,100528.63
2022-07-28T01:10:09.827Z,100530.94
2022-07-28T01:12:57.224Z,100530.09
2022-07-28T01:15:31.823Z,100529.50
2022-07-28T01:18:06.398Z,100532.63
2022-07-28T01:20:38.689Z,100532.28
2022-07-28T01:23:25.498Z,100532.94
2022-07-28T01:26:07.689Z,100538.13
2022-07-28T01:28:49.093Z,100538.22
2022-07-28T01:31:26.435Z,100532.06
2022-07-28T01:33:59.614Z,100531.91
2022-07-28T01:36:33.233Z,100540.84
2022-07-28T01:39:03.227Z,100539.50
2022-07-28T01:41:35.602Z,100544.09
2022-07-28T01:44:08.290Z,100550.13
2022-07-28T01:46:40.309Z,100546.66
2022-07-28T01:49:11.156Z,100552.09
2022-07-28T01:51:40.165Z,100556.69
2022-07-28T01:54:10.580Z,100556.53
2022-07-28T01:56:40.994Z,100556.34
2022-07-28T01:59:12.354Z,100553.84
2022-07-28T02:01:45.624Z,100559.66
2022-07-28T02:04:17.292Z,100559.06
2022-07-28T02:06:48.029Z,100554.75
2022-07-28T02:09:17.133Z,100556.16
2022-07-28T02:11:48.136Z,100567.50
2022-07-28T02:14:24.800Z,100567.50
2022-07-28T02:16:59.531Z,100567.50
2022-07-28T02:19:30.949Z,100572.06
2022-07-28T02:21:59.142Z,100585.13
2022-07-28T02:24:28.906Z,100595.06
2022-07-28T02:27:00.970Z,100598.00
2022-07-28T02:29:50.325Z,100592.16
2022-07-28T02:32:28.616Z,100594.38
2022-07-28T02:35:02.805Z,100597.25
2022-07-28T02:37:37.035Z,100597.06
2022-07-28T02:40:07.294Z,100602.22
2022-07-28T02:42:37.921Z,100607.81
2022-07-28T02:45:12.048Z,100605.53
2022-07-28T02:47:47.114Z,100609.88
2022-07-28T02:50:17.908Z,100599.75
2022-07-28T02:52:47.633Z,100604.91
2022-07-28T02:55:17.465Z,100614.00
2022-07-28T02:57:47.245Z,100642.34
2022-07-28T03:00:16.885Z,100636.34
2022-07-28T03:02:47.268Z,100644.19
2022-07-28T03:05:17.759Z,100640.28
2022-07-28T03:07:51.272Z,100644.41
2022-07-28T03:10:34.179Z,100643.16
2022-07-28T03:13:12.590Z,100644.56
2022-07-28T03:15:41.287Z,100654.00
2022-07-28T03:18:10.826Z,100653.00
2022-07-28T03:20:38.942Z,100656.34
2022-07-28T03:23:08.254Z,100658.41
2022-07-28T03:25:42.444Z,100658.59
2022-07-28T03:28:15.247Z,100661.69
2022-07-28T03:30:46.587Z,100664.97
2022-07-28T03:33:16.882Z,100663.47
2022-07-28T03:35:48.762Z,100669.88
2022-07-28T03:38:30.801Z,100674.25
2022-07-28T03:40:59.731Z,100677.59
2022-07-28T03:43:28.747Z,100688.19
2022-07-28T03:45:56.696Z,100677.72
2022-07-28T03:48:31.659Z,100686.13
2022-07-28T03:51:00.254Z,100690.13
2022-07-28T03:53:29.709Z,100698.00
2022-07-28T03:55:58.762Z,100697.28
2022-07-28T03:58:28.938Z,100702.00
2022-07-28T04:00:57.756Z,100704.69
2022-07-28T04:03:42.821Z,100707.97
2022-07-28T04:06:15.840Z,100709.19
2022-07-28T04:08:44.026Z,100717.75
2022-07-28T04:11:12.764Z,100721.88
2022-07-28T04:13:42.592Z,100720.69
2022-07-28T04:16:18.562Z,100723.28
2022-07-28T04:18:47.177Z,100717.88
2022-07-28T04:21:16.548Z,100728.75
2022-07-28T04:23:44.563Z,100743.91
2022-07-28T04:26:12.535Z,100732.16
2022-07-28T04:28:40.780Z,100738.16
2022-07-28T04:31:23.248Z,100732.75
2022-07-28T04:33:51.449Z,100751.75
2022-07-28T04:36:22.480Z,100737.78
2022-07-28T04:38:50.510Z,100743.53
2022-07-28T04:41:18.740Z,100740.84
2022-07-28T04:43:46.655Z,100750.59
2022-07-28T04:46:15.244Z,100748.25
2022-07-28T04:48:44.023Z,100744.75
2022-07-28T04:51:12.363Z,100755.31
2022-07-28T04:53:41.657Z,100764.84
2022-07-28T04:56:09.653Z,100750.59
2022-07-28T04:58:39.090Z,100762.91
2022-07-28T05:01:08.079Z,100761.28
2022-07-28T05:03:36.599Z,100758.28
2022-07-28T05:06:05.182Z,100768.53
2022-07-28T05:08:33.304Z,100771.16
2022-07-28T05:11:03.199Z,100782.19
2022-07-28T05:13:34.585Z,100777.97
2022-07-28T05:16:03.648Z,100782.19
2022-07-28T05:18:31.682Z,100784.06
2022-07-28T05:20:59.857Z,100782.44
2022-07-28T05:23:27.846Z,100784.22
2022-07-28T05:25:55.862Z,100784.09
2022-07-28T05:28:25.592Z,100791.88
2022-07-28T05:30:54.274Z,100798.22
2022-07-28T05:33:23.055Z,100790.09
2022-07-28T05:35:56.181Z,100800.22
2022-07-28T05:38:26.339Z,100805.13
2022-07-28T05:40:54.439Z,100800.06
2022-07-28T05:43:22.671Z,100807.97
2022-07-28T05:45:52.267Z,100800.91
2022-07-28T05:48:21.072Z,100796.31
2022-07-28T05:50:49.906Z,100811.25
2022-07-28T05:53:19.585Z,100809.63
2022-07-28T05:56:00.335Z,100817.88
2022-07-28T05:58:29.803Z,100815.63
2022-07-28T06:01:02.245Z,100812.31
2022-07-28T06:03:32.297Z,100813.13
2022-07-28T06:06:15.215Z,100820.19
2022-07-28T06:08:45.939Z,100825.84
2022-07-28T06:11:21.993Z,100833.38
2022-07-28T06:13:53.659Z,100836.91
2022-07-28T06:16:23.967Z,100844.63
2022-07-28T06:18:52.794Z,100841.84
2022-07-28T06:21:24.373Z,100846.63
2022-07-28T06:23:52.342Z,100850.28
2022-07-28T06:26:23.398Z,100839.81
2022-07-28T06:28:54.333Z,100862.06
2022-07-28T06:31:24.023Z,100856.53
2022-07-28T06:33:52.204Z,100863.56
2022-07-28T06:36:20.200Z,100861.63
2022-07-28T06:38:48.108Z,100853.22
2022-07-28T06:41:16.658Z,100861.41
2022-07-28T06:43:45.740Z,100867.28
2022-07-28T06:46:18.675Z,100864.22
2022-07-28T06:48:48.615Z,100873.38
2022-07-28T06:51:19.246Z,100870.94
2022-07-28T06:53:48.675Z,100872.00
2022-07-28T06:56:17.083Z,100873.66
2022-07-28T06:58:47.286Z,100868.09
2022-07-28T07:01:16.233Z,100866.28
2022-07-28T07:03:45.715Z,100865.78
2022-07-28T07:06:18.255Z,100874.22
2022-07-28T07:08:49.440Z,100864.25
2022-07-28T07:11:17.654Z,100870.09
2022-07-28T07:13:47.557Z,100875.28
2022-07-28T07:16:16.179Z,100884.50
2022-07-28T07:18:44.278Z,100881.56
2022-07-28T07:21:12.228Z,100877.06
2022-07-28T07:23:41.994Z,100882.06
2022-07-28T07:26:10.008Z,100881.44
2022-07-28T07:28:38.959Z,100895.25
2022-07-28T07:31:07.415Z,100894.06
2022-07-28T07:33:35.784Z,100893.81
2022-07-28T07:36:04.043Z,100894.13
2022-07-28T07:38:32.218Z,100898.97
2022-07-28T07:41:01.881Z,100902.66
2022-07-28T07:43:30.210Z,100900.06
2022-07-28T07:46:01.659Z,100903.31
2022-07-28T07:48:29.832Z,100911.97
2022-07-28T07:50:57.823Z,100906.44
2022-07-28T07:53:26.461Z,100919.69
2022-07-28T07:55:54.606Z,100908.88
2022-07-28T07:58:24.169Z,100908.09
2022-07-28T08:00:53.530Z,100915.59
2022-07-28T08:03:22.594Z,100921.13
2022-07-28T08:05:51.766Z,100917.66
2022-07-28T08:08:20.326Z,100911.66
2022-07-28T08:10:51.236Z,100918.91
2022-07-28T08:13:23.230Z,100917.25
2022-07-28T08:15:52.921Z,100913.34
2022-07-28T08:18:21.464Z,100920.09
2022-07-28T08:20:49.541Z,100924.69
2022-07-28T08:23:21.561Z,100917.34
2022-07-28T08:25:52.576Z,100924.75
2022-07-28T08:28:20.548Z,100923.19
2022-07-28T08:30:48.484Z,100925.16
2022-07-28T08:33:21.981Z,100930.91
2022-07-28T08:35:50.662Z,100934.34
2022-07-28T08:38:18.708Z,100939.28
2022-07-28T08:40:50.127Z,100929.16
2022-07-28T08:43:27.220Z,100928.28
2022-07-28T08:45:58.735Z,100923.03
2022-07-28T08:48:31.050Z,100926.91
2022-07-28T08:51:03.211Z,100941.06
2022-07-28T08:53:32.918Z,100933.50
2022-07-28T08:56:04.435Z,100935.84
2022-07-28T08:58:42.071Z,100936.34
2022-07-28T09:01:11.171Z,100936.22
2022-07-28T09:03:41.071Z,100935.84
2022-07-28T09:06:09.620Z,100939.88
2022-07-28T09:08:38.866Z,100946.09
2022-07-28T09:11:08.441Z,100950.50
2022-07-28T09:13:36.891Z,100942.47
2022-07-28T09:16:07.289Z,100951.28
2022-07-28T09:18:36.651Z,100947.72
2022-07-28T09:21:06.100Z,100946.09
2022-07-28T09:23:44.756Z,100953.19
2022-07-28T09:26:13.809Z,100951.28
2022-07-28T09:28:53.168Z,100958.09
2022-07-28T09:31:22.125Z,100959.09
2022-07-28T09:34:00.507Z,100957.06
2022-07-28T09:36:31.084Z,100959.03
2022-07-28T09:38:59.333Z,100961.41
2022-07-28T09:41:27.558Z,100960.78
2022-07-28T09:43:56.094Z,100957.53
2022-07-28T09:46:25.893Z,100968.16
2022-07-28T09:48:58.070Z,100958.78
2022-07-28T09:51:31.170Z,100955.63
2022-07-28T09:54:11.430Z,100960.38
2022-07-28T09:56:40.771Z,100956.31
2022-07-28T09:59:09.397Z,100965.50
2022-07-28T10:01:52.679Z,100953.22
2022-07-28T10:04:34.124Z,100949.44
2022-07-28T10:07:05.740Z,100957.09
2022-07-28T10:09:34.666Z,100956.88
2022-07-28T10:12:20.345Z,100948.53
2022-07-28T10:15:37.408Z,100949.50
2022-07-28T10:18:07.128Z,100962.31
2022-07-28T10:20:35.653Z,100963.38
2022-07-28T10:23:06.703Z,100958.19
2022-07-28T10:25:36.834Z,100956.28
2022-07-28T10:28:05.676Z,100959.59
2022-07-28T10:30:41.666Z,100958.50
2022-07-28T10:33:14.905Z,100961.56
2022-07-28T10:35:54.242Z,100965.41
2022-07-28T10:38:28.442Z,100960.72
2022-07-28T10:40:59.673Z,100966.66
2022-07-28T10:43:29.282Z,100961.47
2022-07-28T10:46:07.468Z,100960.22
2022-07-28T10:48:38.409Z,100970.00
2022-07-28T10:51:06.986Z,100969.25
2022-07-28T10:53:49.489Z,100960.88
2022-07-28T10:56:26.754Z,100957.16
2022-07-28T10:59:05.137Z,100967.03
2022-07-28T11:01:53.611Z,100978.41
2022-07-28T11:04:53.510Z,100969.56
2022-07-28T11:07:22.433Z,100965.25
2022-07-28T11:09:53.537Z,100958.97
2022-07-28T11:12:49.949Z,100975.72
2022-07-28T11:15:34.473Z,100969.09
2022-07-28T11:18:05.909Z,100972.28
2022-07-28T11:21:09.382Z,100969.63
2022-07-28T11:23:56.026Z,100966.97
2022-07-28T11:26:38.855Z,100961.44
2022-07-28T11:29:23.738Z,100961.75
2022-07-28T11:32:05.875Z,100957.47
2022-07-28T11:35:09.334Z,100967.91
2022-07-28T11:38:09.522Z,100968.50
2022-07-28T11:40:43.145Z,100960.63
2022-07-28T11:43:37.765Z,100964.75
2022-07-28T11:46:35.010Z,100960.16
2022-07-28T11:49:17.254Z,100952.00
2022-07-28T11:52:10.075Z,100961.00
2022-07-28T11:54:38.818Z,100959.63
2022-07-28T11:57:10.001Z,100965.59
2022-07-28T11:59:53.505Z,100966.41
2022-07-28T12:02:27.902Z,100967.47
2022-07-28T12:05:04.000Z,100972.41
2022-07-28T12:07:38.382Z,100975.69
2022-07-28T12:10:54.989Z,100977.63
2022-07-28T12:13:29.052Z,100978.69
2022-07-28T12:15:59.250Z,100979.50
2022-07-28T12:18:27.318Z,100979.25
2022-07-28T12:20:56.062Z,100969.72
2022-07-28T12:23:34.907Z,100971.13
2022-07-28T12:26:12.243Z,100964.06
2022-07-28T12:28:40.556Z,100966.28
2022-07-28T12:31:13.745Z,100969.28
2022-07-28T12:33:41.998Z,100965.22
2022-07-28T12:36:10.736Z,100974.22
2022-07-28T12:38:38.967Z,100969.88
2022-07-28T12:41:15.434Z,100969.59
2022-07-28T12:43:51.385Z,100965.50
2022-07-28T12:46:28.526Z,100958.97
2022-07-28T12:48:57.662Z,100967.19
2022-07-28T12:51:33.693Z,100969.34
2022-07-28T12:54:01.802Z,100967.69
2022-07-28T12:56:30.750Z,100965.50
2022-07-28T12:59:06.611Z,100966.59
2022-07-28T13:01:52.770Z,100963.59
2022-07-28T13:04:59.393Z,100972.66
2022-07-28T13:07:29.986Z,100962.22
2022-07-28T13:10:04.514Z,100965.22
2022-07-28T13:12:37.348Z,100978.63
2022-07-28T13:15:17.215Z,100978.34
2022-07-28T13:17:55.225Z,100974.56
2022-07-28T13:20:24.272Z,100987.69
2022-07-28T13:22:54.085Z,100978.91
2022-07-28T13:25:22.616Z,100984.66
2022-07-28T13:27:55.305Z,100993.16
2022-07-28T13:30:24.052Z,100984.38
2022-07-28T13:32:55.353Z,100994.22
2022-07-28T13:35:23.729Z,100986.03
2022-07-28T13:37:51.712Z,100985.50
2022-07-28T13:40:20.124Z,100985.75
2022-07-28T13:42:52.412Z,100991.50
2022-07-28T13:45:23.748Z,100995.03
2022-07-28T13:47:53.637Z,100990.16
2022-07-28T13:50:22.125Z,100987.13
2022-07-28T13:52:52.618Z,100990.13
2022-07-28T13:55:21.960Z,100987.94
2022-07-28T13:57:51.652Z,100992.31
2022-07-28T14:00:21.120Z,100986.56
2022-07-28T14:02:51.100Z,100986.31
2022-07-28T14:05:22.144Z,100995.59
2022-07-28T14:07:53.761Z,100991.78
2022-07-28T14:10:26.623Z,100995.88
2022-07-28T14:12:55.654Z,100988.78
2022-07-28T14:15:23.747Z,100990.13
2022-07-28T14:17:52.071Z,100983.25
2022-07-28T14:20:21.603Z,100992.03
2022-07-28T14:22:51.911Z,100984.66
2022-07-28T14:25:21.536Z,100990.13
2022-07-28T14:27:51.663Z,100987.09
2022-07-28T14:30:20.771Z,100987.13
2022-07-28T14:32:49.686Z,100991.78
2022-07-28T14:35:17.817Z,100984.34
2022-07-28T14:38:35.117Z,100986.56
2022-07-28T14:40:39.492Z,100989.00
2022-07-28T14:43:08.116Z,100989.28
2022-07-28T14:45:51.210Z,100986.28
2022-07-28T14:48:24.454Z,100984.63
2022-07-28T14:50:55.507Z,100982.75
2022-07-28T14:53:28.113Z,100995.59
2022-07-28T14:55:56.479Z,100990.09
2022-07-28T14:58:24.488Z,100985.19
2022-07-28T15:00:52.595Z,100987.38
2022-07-28T15:03:21.158Z,100981.94
2022-07-28T15:05:50.126Z,100983.56
2022-07-28T15:08:18.451Z,100983.00
2022-07-28T15:10:51.263Z,100992.00
2022-07-28T15:13:19.564Z,100986.78
2022-07-28T15:15:48.131Z,100986.22
2022-07-28T15:18:16.136Z,100995.50
2022-07-28T15:20:49.457Z,100990.59
2022-07-28T15:23:17.583Z,100998.25
2022-07-28T15:25:47.460Z,100996.59
2022-07-28T15:28:17.801Z,100989.22
2022-07-28T15:30:52.779Z,101000.16
2022-07-28T15:33:21.740Z,100994.16
2022-07-28T15:35:57.927Z,100988.13
2022-07-28T15:38:28.276Z,100994.97
2022-07-28T15:40:58.775Z,101006.13
2022-07-28T15:43:28.644Z,100999.28
2022-07-28T15:45:57.622Z,100994.09
2022-07-28T15:48:25.870Z,100993.22
2022-07-28T15:50:53.812Z,100995.69
2022-07-28T15:53:22.160Z,101001.44
2022-07-28T15:55:51.630Z,100995.16
2022-07-28T15:58:20.527Z,101001.44
2022-07-28T16:00:50.124Z,100991.56
2022-07-28T16:03:18.186Z,100994.03
2022-07-28T16:05:49.634Z,100997.53
2022-07-28T16:08:22.921Z,101006.25
2022-07-28T16:10:52.911Z,100992.53
2022-07-28T16:13:36.160Z,101006.38
2022-07-28T16:16:08.565Z,101001.91
2022-07-28T16:18:37.767Z,100997.53
2022-07-28T16:21:06.918Z,100993.03
2022-07-28T16:23:35.398Z,100991.94
2022-07-28T16:26:05.206Z,100994.91
2022-07-28T16:28:33.330Z,100988.44
2022-07-28T16:31:01.403Z,100992.19
2022-07-28T16:33:33.731Z,100987.41
2022-07-28T16:36:02.362Z,100984.97
2022-07-28T16:38:30.382Z,100991.59
2022-07-28T16:40:59.159Z,100995.16
2022-07-28T16:43:27.114Z,100993.56
2022-07-28T16:45:59.952Z,100999.44
2022-07-28T16:48:28.455Z,100990.56
2022-07-28T16:50:57.986Z,100989.00
2022-07-28T16:53:26.540Z,100991.66
2022-07-28T16:55:54.737Z,100995.88
2022-07-28T16:58:22.741Z,100993.09
2022-07-28T17:00:50.966Z,101002.69
2022-07-28T17:03:19.089Z,100991.94
2022-07-28T17:05:48.342Z,100998.50
2022-07-28T17:08:17.778Z,100998.41
2022-07-28T17:10:47.353Z,100997.53
2022-07-28T17:13:18.967Z,100994.84
2022-07-28T17:15:47.059Z,100998.41
2022-07-28T17:18:15.009Z,101002.94
2022-07-28T17:20:46.982Z,101004.00
2022-07-28T17:23:15.215Z,101007.78
2022-07-28T17:28:32.946Z,101006.50
2022-07-28T17:31:01.345Z,101004.47
2022-07-28T17:33:31.229Z,101007.13
2022-07-28T17:36:00.288Z,101014.78
2022-07-28T17:38:33.051Z,101015.13
2022-07-28T17:41:04.629Z,101015.34
2022-07-28T17:43:33.123Z,101031.31
2022-07-28T17:46:02.699Z,101027.63
2022-07-28T17:48:36.573Z,101032.09
2022-07-28T17:51:07.133Z,101030.09
2022-07-28T17:53:39.200Z,101034.00
2022-07-28T17:56:10.091Z,101035.50
2022-07-28T17:58:38.446Z,101045.47
2022-07-28T18:01:11.933Z,101040.50
2022-07-28T18:03:58.556Z,101044.03
2022-07-28T18:06:34.065Z,101036.53
2022-07-28T18:09:07.050Z,101044.38
2022-07-28T18:11:56.547Z,101042.31
2022-07-28T18:14:28.714Z,101049.75
2022-07-28T18:16:57.138Z,101047.00
2022-07-28T18:19:25.243Z,101055.59
2022-07-28T18:21:53.526Z,101054.81
2022-07-28T18:24:23.111Z,101049.16
2022-07-28T18:26:53.242Z,101050.66
2022-07-28T18:29:22.167Z,101057.50
2022-07-28T18:31:51.857Z,101056.06
2022-07-28T18:34:24.600Z,101057.66
2022-07-28T18:36:53.516Z,101059.22
2022-07-28T18:39:21.818Z,101061.81
2022-07-28T18:41:49.841Z,101073.09
2022-07-28T18:44:20.243Z,101070.59
2022-07-28T18:46:48.745Z,101069.28
2022-07-28T18:49:18.796Z,101069.81
2022-07-28T18:51:46.835Z,101066.06
2022-07-28T18:54:20.111Z,101073.63
2022-07-28T18:56:54.444Z,101075.78
2022-07-28T18:59:24.458Z,101085.25
2022-07-28T19:01:52.652Z,101078.41
2022-07-28T19:04:21.375Z,101072.84
2022-07-28T19:06:49.286Z,101082.28
2022-07-28T19:09:17.565Z,101084.25
2022-07-28T19:11:46.508Z,101082.13
2022-07-28T19:14:15.848Z,101081.88
2022-07-28T19:16:45.628Z,101082.16
2022-07-28T19:19:14.739Z,101094.19
2022-07-28T19:21:43.623Z,101090.38
2022-07-28T19:24:13.859Z,101096.41
2022-07-28T19:26:43.394Z,101099.16
2022-07-28T19:29:11.431Z,101101.25
2022-07-28T19:31:40.191Z,101112.38
2022-07-28T19:34:09.801Z,101110.66
2022-07-28T19:36:43.059Z,101114.19
2022-07-28T19:39:13.371Z,101114.16
2022-07-28T19:41:42.009Z,101119.63
2022-07-28T19:44:12.182Z,101115.28
2022-07-28T19:46:40.886Z,101129.03
2022-07-28T19:49:12.098Z,101117.69
2022-07-28T19:51:40.879Z,101126.22
2022-07-28T19:54:09.376Z,101122.22
2022-07-28T19:56:39.685Z,101123.09
2022-07-28T19:59:08.222Z,101129.81
2022-07-28T20:01:36.368Z,101130.31
2022-07-28T20:04:16.254Z,101135.47
2022-07-28T20:06:44.759Z,101140.69
2022-07-28T20:09:12.830Z,101143.97
2022-07-28T20:11:44.781Z,101140.53
2022-07-28T20:14:14.234Z,101146.53
2022-07-28T20:16:42.834Z,101139.22
2022-07-28T20:19:18.235Z,101144.41
2022-07-28T20:21:46.345Z,101145.31
2022-07-28T20:24:16.414Z,101154.00
2022-07-28T20:26:46.790Z,101153.16
2022-07-28T20:29:14.768Z,101156.81
2022-07-28T20:31:42.856Z,101153.25
2022-07-28T20:34:13.393Z,101163.53
2022-07-28T20:36:42.915Z,101167.63
2022-07-28T20:39:27.919Z,101172.13
2022-07-28T20:41:59.241Z,101177.81
2022-07-28T20:44:29.240Z,101175.22
2022-07-28T20:46:58.855Z,101177.16
2022-07-28T20:49:28.365Z,101169.56
2022-07-28T20:51:58.847Z,101179.84
2022-07-28T20:54:27.441Z,101177.41
2022-07-28T20:56:55.816Z,101185.78
2022-07-28T20:59:27.700Z,101186.28
2022-07-28T21:01:56.954Z,101191.94
2022-07-28T21:04:25.307Z,101197.44
2022-07-28T21:07:00.783Z,101199.56
2022-07-28T21:09:32.154Z,101199.19
2022-07-28T21:12:01.892Z,101198.84
2022-07-28T21:14:32.380Z,101208.84
2022-07-28T21:17:00.506Z,101206.44
2022-07-28T21:19:28.742Z,101201.25
2022-07-28T21:21:56.771Z,101196.75
2022-07-28T21:24:29.049Z,101203.00
2022-07-28T21:26:58.486Z,101205.75
2022-07-28T21:32:03.715Z,101210.16
2022-07-28T21:34:34.505Z,101219.06
2022-07-28T21:37:03.095Z,101209.94
2022-07-28T21:39:31.432Z,101214.13
2022-07-28T21:42:02.847Z,101216.22
2022-07-28T21:44:32.990Z,101212.28
2022-07-28T21:47:00.960Z,101217.25
2022-07-28T21:49:31.288Z,101216.88
2022-07-28T21:52:00.033Z,101220.41
2022-07-28T21:54:29.480Z,101221.28
2022-07-28T21:56:58.226Z,101217.53
2022-07-28T21:59:27.653Z,101222.97
2022-07-28T22:01:55.695Z,101219.22
2022-07-28T22:04:24.126Z,101228.78
2022-07-28T22:06:54.096Z,101228.59
2022-07-28T22:09:22.252Z,101235.84
2022-07-28T22:11:50.814Z,101235.66
2022-07-28T22:14:20.389Z,101245.38
2022-07-28T22:16:49.976Z,101238.75
2022-07-28T22:19:18.023Z,101238.75
2022-07-28T22:21:46.001Z,101241.25
2022-07-28T22:24:16.139Z,101239.97
2022-07-28T22:26:44.487Z,101239.78
2022-07-28T22:29:12.882Z,101242.91
2022-07-28T22:31:41.174Z,101245.16
2022-07-28T22:34:10.807Z,101244.94
2022-07-28T22:36:39.642Z,101242.66
2022-07-28T22:39:07.666Z,101243.06
2022-07-28T22:41:42.957Z,101238.06
2022-07-28T22:44:15.222Z,101242.22
2022-07-28T22:46:44.161Z,101245.13
2022-07-28T22:49:13.866Z,101246.56
2022-07-28T22:51:46.354Z,101248.22
2022-07-28T22:54:16.560Z,101246.13
2022-07-28T22:56:45.119Z,101246.09
2022-07-28T22:59:14.435Z,101248.78
2022-07-28T23:01:46.107Z,101243.16
2022-07-28T23:04:15.787Z,101243.38
2022-07-28T23:06:43.962Z,101239.41
2022-07-28T23:09:12.590Z,101247.03
2022-07-28T23:11:40.954Z,101248.69
2022-07-28T23:14:10.481Z,101255.69
2022-07-28T23:16:39.386Z,101252.59
2022-07-28T23:19:07.343Z,101255.50
2022-07-28T23:21:39.577Z,101262.09
2022-07-28T23:24:08.102Z,101260.63
2022-07-28T23:26:36.133Z,101263.69
2022-07-28T23:29:04.143Z,101262.47
2022-07-28T23:31:32.887Z,101263.88
2022-07-28T23:34:01.207Z,101265.94
2022-07-28T23:36:29.229Z,101267.34
2022-07-28T23:39:00.224Z,101270.66
2022-07-28T23:41:29.327Z,101269.38
2022-07-28T23:43:57.340Z,101263.97
2022-07-28T23:46:31.776Z,101278.16
2022-07-28T23:48:59.860Z,101270.88
2022-07-28T23:51:46.870Z,101258.88
2022-07-28T23:54:18.262Z,101256.97
2022-07-28T23:56:47.296Z,101267.47
2022-07-28T23:59:15.267Z,101265.19
